Aérodrome :
LOGIN :

S'inscrire | Disclaimer

   EN    FR    IT 

 










Légende :    VFR   VFR Marginal   IFR   IFR Intensif   IFR Très Intensif
Visi : 
Plafond : 
>= 8 km
>= 3000ft
5 à 8 km
1000 à 3000 ft
1500m à 5 km
500 à 1000 ft
800 à 1500m
200 à 500 ft
< 800m
< 200 ft
Symboles :   Orages  Brouillard  Fortes neiges  Fortes précipitations  Vent > 20 kt
SIGMETs :   Divers  Orages  Givrage  Turbulence  Onde Orograph.  Cendres Volcan.






- Altitude de l'aérodrome : 1058 ft
- Code IATA : SCN


EDDR - Saarbrücken

DERNIER METAR :
  • 250850Z 23016KT 9999 FEW013 BKN035 09/07 Q1000 NOSIG

METARs EXPIRÉS :
  • 250820Z 23017KT 9999 FEW010 BKN032 09/07 Q1000 NOSIG
  • 250750Z 22012KT 9999 -RADZ FEW008 BKN029 09/07 Q1000 NOSIG
  • 250720Z 20012KT 9999 FEW007 BKN029 09/07 Q1001 NOSIG
  • 250650Z 19008KT 170V240 9999 FEW007 BKN029 09/07 Q1001 NOSIG
  • 250620Z 20009KT 160V230 9999 FEW007 08/07 Q1000 NOSIG

TAF TAF EDDR
Valide du 25 à 06h jusqu'au 26 à 06h UTC


250500Z 2506/2606 22012KT 9999 FEW007 SCT015
PROB30
TEMPO 2506/2508 BKN007
TEMPO 2509/2606 23015G25KT
TEMPO 2512/2524 4500 SHRA BKN020CB
TEMPO 2600/2606 2500 RADZ BKN005



MET'MAP, la Météo Aéronautique d'un coup d'oeil ! - Copyright ORBIFLY Décembre 2007 - Disclaimer

ORBIFLY MET'MAP TEAM :

Programmation & Développement : Alexandra Zaïnal
Sur une idée originale de : Baudouin d'Aumeries
Assistance à la programmation : Marc-Olivier Méhu
Soutien technique & logistique : Manuel Goepfert

Contact : metmap@orbifly.com




SOURCES & CREDITS :

   NOAA